ENNA METAR and TAF weather

Enter ICAO airport designator
Station Type Date Time Source
ENNA METAR 2020/01/27 13:50 UTC NOAA

ENNA 271350Z VRB02KT 9999 VCFG NSC M20/M22 Q1015 RMK WIND 1800FT 17015KT


Station Type Date Time Source
ENNA Decoded METAR 2020/01/27 13:50 UTC NOAA

Banak, Norway (ENNA) 70-04N 024-59E 8M
Jan 27, 2020 - 08:50 AM EST / 2020.01.27 1350 UTC
Wind: Variable at 2 MPH (2 KT):0
Visibility: greater than 7 mile(s):0
Weather: fog in the vicinity
Temperature: -4 F (-20 C)
Dew Point: -7 F (-22 C)
Relative Humidity: 84%
Pressure (altimeter): 29.97 in. Hg (1015 hPa)
ob: ENNA 271350Z VRB02KT 9999 VCFG NSC M20/M22 Q1015 RMK WIND 1800FT 17015KT
cycle: 14

Station Type Date Time Source
ENNA TAF 2020/01/27 12:57 UTC NOAA

TAF TAF ENNA 271100Z 2712/2812 18008KT 9999 FEW040
TEMPO 2718/2812 19018KT

Example: see airport list